Terminal Aerodrome Forecast
Issued by NWS

Home | Current Version | Previous Version | Text Only | Print | Product List | Glossary On
Versions: 1 2 3 4 5 6 7 8 9 10 11 12 13 14 15
000
FTUS45 KRIW 251447 AAA
TAFCPR
TAF AMD
KCPR 251447Z 2515/2612 05010KT P6SM -SHRA SCT008 BKN050
      TEMPO 2515/2518 BKN012
     FM251800 08007KT P6SM SCT025 OVC050
     FM260000 09009KT P6SM VCSH SCT030 OVC050=

USA.gov is the U.S. government's official web portal to all federal, state and local government web resources and services.